Time;durP1;ratioP1;P1;durP2;ratioP2;P2;SDS_P1;SDS_P2;PMS_P1;PMS_P2;Temp;Humidity;BMP_temperature;BMP_pressure;BME280_temperature;BME280_humidity;BME280_pressure;Samples;Min_cycle;Max_cycle;Signal;HPM_P1;HPM_P2
2021/05/31 00:00:07;;;;;;;2.63;2.33;;;;;;;13.91;61.45;100451.20;125291;1099;104165;-78
2021/05/31 00:02:56;;;;;;;3.73;2.70;;;;;;;13.86;62.07;100452.86;125484;1099;104448;-78
2021/05/31 00:05:26;;;;;;;7.23;2.73;;;;;;;13.84;61.91;100449.31;126276;1099;104277;-78
2021/05/31 00:07:56;;;;;;;3.77;2.23;;;;;;;13.81;61.75;100454.52;126267;1099;104719;-78
2021/05/31 00:10:26;;;;;;;2.60;2.40;;;;;;;13.78;62.04;100457.09;125161;1099;104152;-79
2021/05/31 00:12:55;;;;;;;4.70;2.57;;;;;;;13.73;61.58;100454.34;126307;1099;104139;-78
2021/05/31 00:15:27;;;;;;;2.50;2.30;;;;;;;13.70;62.34;100462.19;126254;1099;104166;-77
2021/05/31 00:17:57;;;;;;;2.47;2.27;;;;;;;13.69;62.12;100447.22;126264;1099;104296;-79
2021/05/31 00:20:26;;;;;;;2.40;2.20;;;;;;;13.70;62.06;100446.37;126245;1099;104140;-77
2021/05/31 00:22:55;;;;;;;3.10;2.40;;;;;;;13.69;61.62;100443.70;125335;1102;104153;-77
2021/05/31 00:25:26;;;;;;;4.00;2.70;;;;;;;13.68;62.06;100439.27;125165;1102;104146;-78
2021/05/31 00:27:55;;;;;;;2.00;1.90;;;;;;;13.62;62.52;100438.29;126295;1098;104150;-78
2021/05/31 00:30:25;;;;;;;3.60;2.40;;;;;;;13.56;62.43;100442.55;126109;1099;104306;-77
2021/05/31 00:32:55;;;;;;;2.27;2.07;;;;;;;13.53;62.31;100440.72;126257;1099;104146;-78
2021/05/31 00:35:26;;;;;;;2.95;1.80;;;;;;;13.52;62.43;100448.59;126301;1099;104274;-78
2021/05/31 00:37:55;;;;;;;4.27;1.83;;;;;;;13.48;62.25;100445.00;125321;1099;104219;-77
2021/05/31 00:40:26;;;;;;;3.87;1.80;;;;;;;13.47;62.12;100440.58;126233;1099;104224;-78
2021/05/31 00:42:55;;;;;;;2.10;1.90;;;;;;;13.46;62.37;100441.42;126194;1099;104149;-78
2021/05/31 00:45:26;;;;;;;2.20;1.87;;;;;;;13.47;62.44;100448.48;125210;1099;104162;-77
2021/05/31 00:47:55;;;;;;;4.85;2.15;;;;;;;13.46;62.56;100454.59;126246;1099;104172;-78
2021/05/31 00:50:25;;;;;;;2.53;1.83;;;;;;;13.45;62.42;100458.99;125142;1099;104171;-77
2021/05/31 00:52:54;;;;;;;2.43;1.80;;;;;;;13.47;62.37;100448.48;126268;1099;104283;-78
2021/05/31 00:55:23;;;;;;;2.27;1.90;;;;;;;13.50;63.10;100451.19;126261;1099;104149;-78
2021/05/31 00:57:52;;;;;;;4.07;2.10;;;;;;;13.51;63.10;100452.07;126185;1099;104143;-78
2021/05/31 01:00:25;;;;;;;1.87;1.77;;;;;;;13.49;62.57;100452.03;126257;1099;104185;-78
2021/05/31 01:02:56;;;;;;;2.33;1.90;;;;;;;13.49;62.72;100452.03;126311;1098;104136;-77
2021/05/31 01:05:25;;;;;;;3.60;1.70;;;;;;;13.52;62.78;100445.95;126307;1099;104332;-78
2021/05/31 01:08:01;;;;;;;2.70;1.93;;;;;;;13.50;62.41;100447.67;126140;1099;104149;-77
2021/05/31 01:10:37;;;;;;;3.13;1.90;;;;;;;13.46;62.78;100441.42;126191;1099;104157;-77
2021/05/31 01:13:14;;;;;;;1.50;1.40;;;;;;;13.48;62.66;100447.64;125248;1102;104628;-78
2021/05/31 01:15:50;;;;;;;2.90;1.60;;;;;;;13.45;62.53;100439.66;125240;1102;104367;-78
2021/05/31 01:18:24;;;;;;;4.07;1.90;;;;;;;13.46;62.87;100446.69;125208;1102;104632;-78
2021/05/31 01:21:15;;;;;;;2.07;1.90;;;;;;;13.43;62.87;100444.89;125181;1102;104172;-78
2021/05/31 01:23:50;;;;;;;3.27;1.93;;;;;;;13.40;63.17;100436.00;125223;1102;104251;-78
2021/05/31 01:26:22;;;;;;;3.37;2.10;;;;;;;13.39;63.60;100435.12;125269;1102;104296;-78
2021/05/31 01:28:56;;;;;;;3.63;1.77;;;;;;;13.38;63.08;100437.72;125250;1102;104302;-78
2021/05/31 01:31:37;;;;;;;2.03;1.83;;;;;;;13.37;63.19;100435.94;125208;1102;104149;-77
2021/05/31 01:34:09;;;;;;;1.90;1.80;;;;;;;13.36;62.98;100424.52;125203;1102;104251;-77
2021/05/31 01:36:44;;;;;;;2.60;1.70;;;;;;;13.37;62.77;100420.12;125157;1102;104414;-78
2021/05/31 01:39:20;;;;;;;2.90;2.07;;;;;;;13.34;62.83;100418.33;125292;1102;104241;-77
2021/05/31 01:41:50;;;;;;;2.87;2.00;;;;;;;13.33;63.61;100419.17;125213;1102;104204;-77
2021/05/31 01:44:20;;;;;;;2.30;2.10;;;;;;;13.33;63.25;100418.26;125557;1099;104165;-78
2021/05/31 01:46:52;;;;;;;3.20;2.10;;;;;;;13.30;63.20;100412.04;125290;1098;104233;-78
2021/05/31 01:49:22;;;;;;;3.40;1.70;;;;;;;13.29;63.64;100415.55;126282;1099;104142;-78
2021/05/31 01:51:52;;;;;;;3.10;2.30;;;;;;;13.31;63.65;100419.09;126257;1099;104162;-77
2021/05/31 01:54:23;;;;;;;8.67;2.47;;;;;;;13.30;63.47;100421.70;125360;1099;104255;-77
2021/05/31 01:56:54;;;;;;;4.07;2.30;;;;;;;13.30;63.91;100424.34;126276;1099;104316;-77
2021/05/31 01:59:24;;;;;;;7.03;3.00;;;;;;;13.32;63.80;100419.98;125312;1099;104274;-77
2021/05/31 02:01:55;;;;;;;3.13;2.50;;;;;;;13.38;63.93;100421.91;126228;1099;104565;-78
2021/05/31 02:04:25;;;;;;;5.07;2.83;;;;;;;13.41;63.73;100432.52;126289;1099;104178;-79
2021/05/31 02:06:55;;;;;;;4.97;2.60;;;;;;;13.40;63.90;100422.83;125337;1099;104188;-78
2021/05/31 02:09:24;;;;;;;2.47;2.27;;;;;;;13.38;63.88;100425.42;126271;1099;104246;-78
2021/05/31 02:12:06;;;;;;;5.17;2.57;;;;;;;13.38;64.18;100421.91;126215;1099;104290;-77
2021/05/31 02:14:43;;;;;;;5.40;2.53;;;;;;;13.35;64.01;100427.11;126291;1099;104152;-77
2021/05/31 02:17:22;;;;;;;2.73;2.20;;;;;;;13.32;64.00;100422.61;126252;1099;104181;-78
2021/05/31 02:19:57;;;;;;;3.27;2.60;;;;;;;13.33;63.82;100423.53;126253;1099;104175;-77
2021/05/31 02:22:31;;;;;;;4.20;2.50;;;;;;;13.33;63.91;100428.80;126263;1099;104143;-77
2021/05/31 02:25:01;;;;;;;4.83;2.47;;;;;;;13.34;64.19;100425.32;125280;1099;104233;-78
2021/05/31 02:27:33;;;;;;;2.37;2.17;;;;;;;13.36;64.25;100435.05;126241;1099;104168;-77
2021/05/31 02:30:03;;;;;;;3.10;2.43;;;;;;;13.34;64.42;100431.50;126177;1099;104150;-77
2021/05/31 02:32:33;;;;;;;3.33;2.53;;;;;;;13.36;63.93;100435.05;125306;1099;104203;-77
2021/05/31 02:35:09;;;;;;;3.07;2.40;;;;;;;13.38;64.72;100429.82;126183;1099;104195;-78
2021/05/31 02:37:40;;;;;;;3.13;2.43;;;;;;;13.35;64.54;100429.75;125299;1099;104134;-77
2021/05/31 02:40:11;;;;;;;3.90;2.40;;;;;;;13.30;64.54;100427.84;126243;1099;104318;-80
2021/05/31 02:42:41;;;;;;;3.37;2.60;;;;;;;13.29;64.49;100431.36;126142;1099;104168;-77
2021/05/31 02:45:13;;;;;;;2.77;2.50;;;;;;;13.28;64.45;100420.78;126278;1098;104240;-78
2021/05/31 02:47:42;;;;;;;4.07;2.50;;;;;;;13.28;64.93;100432.20;125308;1099;104232;-77
2021/05/31 02:50:13;;;;;;;3.70;2.40;;;;;;;13.27;64.65;100427.77;126119;1099;104300;-76
2021/05/31 02:52:44;;;;;;;3.63;2.77;;;;;;;13.28;64.68;100424.30;126244;1099;104242;-78
2021/05/31 02:55:16;;;;;;;3.73;2.60;;;;;;;13.32;65.15;100425.25;126293;1099;104146;-78
2021/05/31 02:57:46;;;;;;;4.43;2.70;;;;;;;13.33;64.83;100419.17;126301;1099;104140;-78
2021/05/31 03:00:19;;;;;;;7.90;2.90;;;;;;;13.36;64.57;100418.36;126252;1099;104268;-78
2021/05/31 03:02:48;;;;;;;3.22;2.83;;;;;;;13.34;64.99;100414.78;126193;1099;104147;-78
2021/05/31 03:05:20;;;;;;;4.10;3.10;;;;;;;13.32;65.19;100419.98;126275;1099;104166;-78
2021/05/31 03:07:49;;;;;;;4.63;3.17;;;;;;;13.29;65.63;100409.37;126250;1099;105189;-78
2021/05/31 03:10:19;;;;;;;4.53;3.00;;;;;;;13.25;65.19;100418.95;125248;1099;104271;-77
2021/05/31 03:12:48;;;;;;;3.43;2.93;;;;;;;13.26;65.83;100411.93;126184;1099;105528;-78
2021/05/31 03:15:18;;;;;;;5.50;3.03;;;;;;;13.28;65.26;100418.15;125227;1099;105460;-78
2021/05/31 03:17:50;;;;;;;5.00;3.10;;;;;;;13.24;65.99;100414.53;126271;1099;104229;-78
2021/05/31 03:20:23;;;;;;;6.00;3.10;;;;;;;13.22;65.68;100413.61;126274;1099;104268;-77
2021/05/31 03:22:55;;;;;;;4.37;2.87;;;;;;;13.25;65.76;100418.95;126252;1099;104271;-78
2021/05/31 03:25:25;;;;;;;5.00;3.20;;;;;;;13.30;65.53;100409.41;126122;1099;104149;-77
2021/05/31 03:27:59;;;;;;;4.80;3.00;;;;;;;13.34;65.86;100409.51;126092;1098;104181;-77
2021/05/31 03:30:28;;;;;;;4.90;3.10;;;;;;;13.34;65.69;100404.23;126220;1099;104153;-78
2021/05/31 03:32:58;;;;;;;6.07;3.40;;;;;;;13.30;66.17;100406.77;125220;1099;105493;-78
2021/05/31 03:35:29;;;;;;;7.97;3.70;;;;;;;13.26;66.14;100390.84;126248;1099;107089;-78
2021/05/31 03:37:58;;;;;;;5.43;3.47;;;;;;;13.26;66.63;100397.03;126221;1099;104230;-77
2021/05/31 03:40:27;;;;;;;4.87;3.67;;;;;;;13.29;66.12;100394.47;126218;1099;104136;-78
2021/05/31 03:42:58;;;;;;;7.13;3.20;;;;;;;13.31;66.31;100390.11;125151;1099;104162;-76
2021/05/31 03:45:27;;;;;;;6.63;3.30;;;;;;;13.33;66.32;100397.17;126173;1098;111869;-78
2021/05/31 03:47:56;;;;;;;4.67;3.27;;;;;;;13.33;66.72;100400.72;125273;1099;104245;-77
2021/05/31 03:50:26;;;;;;;5.13;3.17;;;;;;;13.37;66.49;100383.22;125187;1099;104226;-77
2021/05/31 03:52:55;;;;;;;5.57;3.47;;;;;;;13.37;66.20;100399.04;125289;1099;104341;-76
2021/05/31 03:55:25;;;;;;;5.97;3.67;;;;;;;13.33;67.02;100397.17;126205;1099;104171;-78
2021/05/31 03:57:54;;;;;;;4.83;3.33;;;;;;;13.28;66.85;100397.95;125318;1099;104140;-77
2021/05/31 04:00:24;;;;;;;5.57;3.40;;;;;;;13.25;66.63;100389.97;126232;1099;104169;-78
2021/05/31 04:02:54;;;;;;;4.93;3.50;;;;;;;13.22;66.66;100400.44;126190;1099;104195;-77
2021/05/31 04:05:28;;;;;;;7.70;3.70;;;;;;;13.21;66.86;100398.65;126053;1099;104140;-76
2021/05/31 04:13:25;;;;;;;4.87;3.45;;;;;;;13.22;67.19;100394.29;126072;1099;104156;-77
2021/05/31 04:15:54;;;;;;;6.07;3.50;;;;;;;13.22;67.04;100397.80;126038;1099;104281;-77
2021/05/31 04:18:23;;;;;;;5.07;3.63;;;;;;;13.23;67.49;100390.78;125988;1099;104299;-77
2021/05/31 04:20:52;;;;;;;7.13;3.90;;;;;;;13.25;67.16;100389.97;125947;1099;104172;-77
2021/05/31 04:23:32;;;;;;;7.83;4.17;;;;;;;13.24;67.52;100397.84;126133;1099;104181;-78
2021/05/31 04:26:01;;;;;;;5.37;3.80;;;;;;;13.24;67.34;100406.63;126018;1099;105432;-77
2021/05/31 04:28:30;;;;;;;7.27;3.87;;;;;;;13.29;67.29;100406.73;126009;1099;104245;-77
2021/05/31 04:31:00;;;;;;;7.03;3.80;;;;;;;13.34;67.30;100402.52;125958;1099;104258;-78
2021/05/31 04:33:30;;;;;;;7.20;4.20;;;;;;;13.39;67.47;100407.89;125988;1099;104185;-78
2021/05/31 04:36:00;;;;;;;7.97;4.43;;;;;;;13.38;67.25;100399.07;126007;1099;104182;-76
2021/05/31 04:38:30;;;;;;;6.80;4.03;;;;;;;13.42;67.64;100400.94;125252;1099;104168;-76
2021/05/31 04:41:00;;;;;;;7.53;4.70;;;;;;;13.44;67.42;100395.70;126030;1098;104152;-75
2021/05/31 04:43:31;;;;;;;8.20;4.70;;;;;;;13.51;67.22;100405.53;125311;1099;104371;-78
2021/05/31 04:46:02;;;;;;;6.57;4.23;;;;;;;13.53;67.52;100416.98;125140;1102;104249;-78
2021/05/31 04:48:31;;;;;;;7.90;4.40;;;;;;;13.61;67.32;100412.77;125160;1102;104143;-78
2021/05/31 04:51:02;;;;;;;9.75;4.80;;;;;;;13.70;67.33;100425.27;125146;1100;104425;-78
2021/05/31 04:53:34;;;;;;;11.03;4.97;;;;;;;13.71;67.53;100426.16;125267;1103;104376;-78
2021/05/31 04:56:07;;;;;;;7.83;5.03;;;;;;;13.80;67.78;100421.95;125056;1102;105613;-78
2021/05/31 04:58:37;;;;;;;7.83;4.70;;;;;;;13.91;67.68;100424.83;125171;1102;104249;-78
2021/05/31 05:01:06;;;;;;;12.23;4.97;;;;;;;13.94;67.80;100422.25;125143;1102;104200;-78
2021/05/31 05:03:35;;;;;;;9.30;4.80;;;;;;;13.98;68.05;100426.74;125140;1103;104341;-78
2021/05/31 05:06:05;;;;;;;9.43;4.53;;;;;;;14.06;68.03;100436.58;125046;1102;104263;-79
2021/05/31 05:08:34;;;;;;;13.00;5.23;;;;;;;14.11;68.18;100421.72;125054;1102;104408;-78
2021/05/31 05:11:03;;;;;;;12.03;4.83;;;;;;;14.14;67.40;100419.14;125148;1102;104297;-78
2021/05/31 05:13:34;;;;;;;8.83;5.00;;;;;;;14.14;67.81;100422.66;125053;1102;104272;-78
2021/05/31 05:16:07;;;;;;;11.53;5.00;;;;;;;14.11;67.82;100425.23;124987;1102;104152;-75
2021/05/31 05:18:44;;;;;;;11.37;4.97;;;;;;;14.08;67.33;100417.26;124998;1102;104322;-77
2021/05/31 05:21:16;;;;;;;15.60;5.03;;;;;;;14.08;68.14;100426.94;125059;1102;104524;-76
2021/05/31 05:23:46;;;;;;;9.37;4.90;;;;;;;14.11;68.03;100430.52;125035;1102;104156;-76
2021/05/31 05:26:16;;;;;;;13.97;5.10;;;;;;;14.12;68.30;100432.30;124961;1102;104175;-77
2021/05/31 05:28:45;;;;;;;8.47;4.83;;;;;;;14.10;67.20;100430.48;125041;1102;104421;-76
2021/05/31 05:31:15;;;;;;;11.70;5.20;;;;;;;14.09;68.09;100429.60;125049;1102;104172;-76
2021/05/31 05:33:44;;;;;;;14.20;5.23;;;;;;;14.10;67.67;100436.67;125009;1103;104229;-76
2021/05/31 05:36:21;;;;;;;11.27;4.80;;;;;;;14.10;68.06;100441.95;125018;1102;104332;-78
2021/05/31 05:41:47;;;;;;;9.37;4.83;;;;;;;14.07;68.15;100439.25;125020;1102;104201;-79
2021/05/31 05:44:41;;;;;;;11.47;4.73;;;;;;;14.06;68.44;100431.30;125006;1102;104390;-78
2021/05/31 05:49:56;;;;;;;11.33;4.93;;;;;;;14.02;67.79;100435.59;124942;1102;104143;-78
2021/05/31 05:52:28;;;;;;;9.03;5.10;;;;;;;14.00;68.04;100440.84;125244;1099;104618;-76
2021/05/31 05:55:11;;;;;;;9.07;4.93;;;;;;;13.99;68.84;100436.45;125942;1099;104169;-75
2021/05/31 05:57:49;;;;;;;11.33;4.60;;;;;;;14.02;68.75;100438.23;125204;1099;105413;-76
2021/05/31 06:01:09;;;;;;;7.77;4.57;;;;;;;14.02;68.76;100439.16;125822;1099;104146;-77
2021/05/31 06:03:40;;;;;;;9.97;5.17;;;;;;;14.03;68.59;100440.91;125584;1099;104249;-76
2021/05/31 06:06:12;;;;;;;15.37;5.40;;;;;;;14.02;68.69;100433.87;125946;1099;104175;-76
2021/05/31 06:08:43;;;;;;;15.30;5.60;;;;;;;14.04;68.10;100433.91;125159;1099;104169;-76
2021/05/31 06:11:15;;;;;;;12.70;5.93;;;;;;;14.05;68.91;100425.11;125144;1099;104149;-77
2021/05/31 06:13:50;;;;;;;11.67;5.60;;;;;;;14.14;68.22;100429.70;125043;1099;104325;-76
2021/05/31 06:16:22;;;;;;;9.43;5.90;;;;;;;14.22;68.67;100425.45;125815;1099;104229;-77
2021/05/31 06:18:52;;;;;;;10.27;5.70;;;;;;;14.24;68.52;100420.20;125047;1102;104156;-77
2021/05/31 06:21:24;;;;;;;12.73;6.13;;;;;;;14.24;69.29;100426.36;125177;1099;104140;-78
2021/05/31 06:23:59;;;;;;;10.40;5.73;;;;;;;14.28;68.76;100422.05;125824;1099;104175;-77
2021/05/31 06:26:30;;;;;;;9.57;5.50;;;;;;;14.29;68.94;100419.44;126052;1099;104169;-77
2021/05/31 06:29:08;;;;;;;13.77;5.80;;;;;;;14.36;68.94;100431.00;126080;1099;102839;-78
2021/05/31 06:31:59;;;;;;;9.40;5.63;;;;;;;14.43;68.59;100424.98;126115;1099;104178;-78
2021/05/31 06:34:50;;;;;;;10.63;5.73;;;;;;;14.45;68.69;100417.09;126072;1099;104188;-79
2021/05/31 06:37:22;;;;;;;14.93;5.73;;;;;;;14.52;69.55;100418.97;125242;1100;105458;-76
2021/05/31 06:40:02;;;;;;;10.80;5.40;;;;;;;14.55;68.73;100417.30;126129;1099;104252;-79
2021/05/31 06:45:51;;;;;;;13.27;6.03;;;;;;;14.67;68.98;100427.20;125978;1096;102592;-79
2021/05/31 06:48:29;;;;;;;10.67;5.67;;;;;;;14.69;69.44;100425.50;125145;1105;104236;-77
2021/05/31 06:51:20;;;;;;;10.67;5.67;;;;;;;14.75;69.51;100419.41;125111;1106;103127;-78
2021/05/31 06:54:09;;;;;;;10.25;5.55;;;;;;;14.81;68.60;100421.28;126138;1096;102957;-77
2021/05/31 06:57:19;;;;;;;8.30;5.23;;;;;;;14.81;68.87;100413.36;125571;1102;104284;-78
2021/05/31 07:00:17;;;;;;;;;;;;;;;14.85;69.60;100420.45;126012;1099;103568;-78
2021/05/31 07:02:53;;;;;;;11.57;5.80;;;;;;;14.90;68.61;100403.83;124684;1109;103779;-78
2021/05/31 07:06:11;;;;;;;8.30;4.87;;;;;;;15.01;68.78;100405.77;124574;1109;104224;-79
2021/05/31 07:08:56;;;;;;;7.40;5.00;;;;;;;15.07;69.59;100406.75;124464;1109;104663;-78
2021/05/31 07:12:03;;;;;;;9.03;4.60;;;;;;;15.10;69.51;100405.91;124595;1109;102461;-78
2021/05/31 07:14:38;;;;;;;8.97;5.43;;;;;;;15.17;69.03;100401.61;124463;1109;111536;-78
2021/05/31 07:17:18;;;;;;;8.53;5.00;;;;;;;15.30;68.72;100389.45;124462;1109;104178;-77
2021/05/31 07:19:51;;;;;;;11.10;5.10;;;;;;;15.38;69.45;100387.80;124843;1105;104303;-78
2021/05/31 07:22:24;;;;;;;10.07;5.50;;;;;;;15.48;69.07;100388.84;124790;1105;104235;-77
2021/05/31 07:24:58;;;;;;;7.90;4.70;;;;;;;15.55;69.30;100385.39;124746;1105;104274;-76
2021/05/31 07:27:30;;;;;;;8.87;5.13;;;;;;;15.58;68.88;100390.72;124799;1105;104347;-78
2021/05/31 07:30:04;;;;;;;9.17;5.20;;;;;;;15.63;68.57;100386.41;124860;1105;104233;-76
2021/05/31 07:32:36;;;;;;;9.90;4.75;;;;;;;15.77;68.97;100383.98;124858;1105;104168;-80
2021/05/31 07:35:09;;;;;;;7.87;4.47;;;;;;;15.90;68.89;100385.01;124936;1105;109348;-77
2021/05/31 07:37:39;;;;;;;9.33;4.70;;;;;;;16.03;68.51;100386.03;124965;1106;104171;-77
2021/05/31 07:40:13;;;;;;;8.23;4.57;;;;;;;16.11;68.47;100393.20;124851;1105;104251;-78
2021/05/31 07:42:44;;;;;;;8.73;5.10;;;;;;;16.25;68.58;100384.50;124954;1105;104195;-79
2021/05/31 07:45:18;;;;;;;8.63;4.53;;;;;;;16.37;68.15;100384.63;124834;1105;104410;-79
2021/05/31 07:47:49;;;;;;;6.87;4.83;;;;;;;16.45;68.61;100385.59;124817;1105;104227;-79
2021/05/31 07:50:22;;;;;;;11.60;5.10;;;;;;;16.53;68.46;100388.31;124885;1105;104274;-79
2021/05/31 07:52:55;;;;;;;8.50;4.60;;;;;;;16.52;68.65;100390.09;124867;1105;104294;-78
2021/05/31 07:55:27;;;;;;;11.60;5.00;;;;;;;16.53;68.64;100386.58;124887;1105;104329;-78
2021/05/31 07:57:58;;;;;;;6.30;4.20;;;;;;;16.51;68.50;100382.13;124843;1105;104309;-79
2021/05/31 08:00:29;;;;;;;6.33;4.03;;;;;;;16.53;67.78;100377.72;124916;1105;104438;-79
2021/05/31 08:03:01;;;;;;;7.30;4.00;;;;;;;16.56;67.98;100376.88;124689;1105;104281;-79
2021/05/31 08:05:31;;;;;;;9.97;4.20;;;;;;;16.56;68.14;100368.92;124924;1105;104306;-80
2021/05/31 08:08:02;;;;;;;5.70;4.27;;;;;;;16.58;68.00;100368.08;124926;1106;104275;-78
2021/05/31 08:10:35;;;;;;;6.77;4.37;;;;;;;16.63;67.31;100366.34;124898;1105;103363;-79
2021/05/31 08:13:06;;;;;;;7.47;4.20;;;;;;;16.66;67.80;100379.63;124880;1105;104296;-77
2021/05/31 08:15:39;;;;;;;9.83;4.27;;;;;;;16.67;67.96;100383.14;124898;1105;104660;-77
2021/05/31 08:18:11;;;;;;;7.95;4.55;;;;;;;16.71;67.38;100404.38;124846;1102;104178;-77
2021/05/31 08:20:42;;;;;;;6.27;4.00;;;;;;;16.67;67.28;100393.74;124925;1105;104204;-78
2021/05/31 08:23:14;;;;;;;5.63;4.20;;;;;;;16.68;67.31;100396.41;124987;1102;104214;-78
2021/05/31 08:25:56;;;;;;;8.78;4.50;;;;;;;16.65;67.32;100398.16;125576;1105;102666;-80
2021/05/31 08:28:26;;;;;;;8.40;4.80;;;;;;;16.70;67.29;100399.07;125287;1104;104147;-80
2021/05/31 08:31:00;;;;;;;9.27;4.60;;;;;;;16.75;66.94;100397.38;124926;1103;104239;-79
2021/05/31 08:33:36;;;;;;;10.30;4.30;;;;;;;16.82;66.83;100400.95;125011;1104;104840;-79
2021/05/31 08:36:08;;;;;;;5.20;3.80;;;;;;;16.88;66.96;100398.39;124941;1105;104229;-79
2021/05/31 08:38:39;;;;;;;5.37;3.43;;;;;;;16.94;66.52;100386.92;124990;1105;104299;-79
2021/05/31 08:41:14;;;;;;;6.57;3.67;;;;;;;17.06;66.65;100393.23;124951;1105;104198;-79
2021/05/31 08:44:15;;;;;;;8.83;4.27;;;;;;;17.17;66.56;100395.06;125223;1104;104162;-78
2021/05/31 08:47:01;;;;;;;7.90;3.57;;;;;;;17.30;66.45;100396.05;125099;1103;104182;31
2021/05/31 08:54:04;;;;;;;;;;;;;;;;;;;;;
2021/05/31 08:57:05;;;;;;;7.80;3.77;;;;;;;17.63;66.20;100394.47;125032;1105;104360;-78
2021/05/31 08:59:57;;;;;;;8.27;3.80;;;;;;;17.71;65.66;100393.61;125444;1100;102587;-77
2021/05/31 09:02:33;;;;;;;8.55;4.20;;;;;;;17.82;65.52;100398.97;124597;1106;105730;-80
2021/05/31 09:05:07;;;;;;;8.20;3.30;;;;;;;17.91;65.37;100390.20;124655;1105;104326;-79
2021/05/31 09:07:47;;;;;;;5.70;3.57;;;;;;;17.91;65.24;100396.39;124529;1109;104310;-79
2021/05/31 09:10:36;;;;;;;5.20;3.60;;;;;;;17.91;65.16;100396.39;124612;1105;104185;-78
2021/05/31 09:13:07;;;;;;;5.33;3.60;;;;;;;17.98;65.03;100391.98;125297;1105;113476;-79
2021/05/31 09:15:44;;;;;;;6.20;3.37;;;;;;;18.02;64.84;100384.93;125167;1105;103067;-78
2021/05/31 09:18:27;;;;;;;7.60;3.90;;;;;;;18.03;64.68;100395.56;124884;1105;102348;-77
2021/05/31 09:21:13;;;;;;;5.03;3.67;;;;;;;17.96;64.62;100389.31;124711;1107;104319;-77
2021/05/31 09:24:23;;;;;;;5.37;3.60;;;;;;;17.83;64.43;100395.44;124952;1106;104309;-79
2021/05/31 09:26:59;;;;;;;6.57;3.80;;;;;;;17.70;64.63;100399.81;125167;1106;104258;-78
2021/05/31 09:30:06;;;;;;;3.90;3.50;;;;;;;17.64;64.45;100396.22;124910;1105;104319;-78
2021/05/31 09:32:54;;;;;;;5.72;3.50;;;;;;;17.59;64.53;100393.55;125158;1105;104320;-78
2021/05/31 09:35:42;;;;;;;4.37;3.20;;;;;;;17.64;64.28;100393.56;124551;1106;104514;-77
2021/05/31 09:38:17;;;;;;;6.40;3.10;;;;;;;17.66;64.15;100398.02;124818;1105;104136;-78
2021/05/31 09:40:57;;;;;;;4.03;3.30;;;;;;;17.66;63.85;100391.83;124609;1105;104242;-77
2021/05/31 09:43:31;;;;;;;5.77;3.20;;;;;;;17.68;64.17;100392.72;124640;1105;104358;-77
2021/05/31 09:46:10;;;;;;;5.43;3.50;;;;;;;17.66;64.06;100394.48;124898;1105;103337;-77
2021/05/31 09:48:41;;;;;;;5.27;3.43;;;;;;;17.68;63.41;100398.02;124623;1109;104316;-78
2021/05/31 09:51:15;;;;;;;4.40;3.50;;;;;;;17.69;63.36;100391.84;124811;1105;104299;-77
2021/05/31 09:53:53;;;;;;;4.93;3.50;;;;;;;17.68;63.46;100398.02;124534;1105;104210;-78
2021/05/31 09:56:25;;;;;;;5.47;3.50;;;;;;;17.69;63.50;100392.72;124891;1105;104203;-78
2021/05/31 09:59:03;;;;;;;5.57;3.30;;;;;;;17.77;63.58;100390.98;124665;1105;104342;-79
2021/05/31 10:01:41;;;;;;;5.53;3.40;;;;;;;17.92;63.44;100391.95;124866;1105;104338;-79
2021/05/31 10:04:26;;;;;;;6.70;3.60;;;;;;;18.06;63.23;100392.00;124627;1105;104403;-78
2021/05/31 10:07:14;;;;;;;6.63;3.07;;;;;;;18.14;63.00;100382.32;124655;1105;104188;-78
2021/05/31 10:09:45;;;;;;;5.17;3.47;;;;;;;18.22;62.98;100387.66;124936;1105;104204;-78
2021/05/31 10:12:15;;;;;;;4.87;3.37;;;;;;;18.28;62.69;100380.58;124903;1105;104210;-78
2021/05/31 10:14:49;;;;;;;6.73;3.47;;;;;;;18.43;63.01;100386.80;124766;1105;104421;-78
2021/05/31 10:17:23;;;;;;;5.33;3.27;;;;;;;18.52;61.99;100383.27;124848;1105;104741;-78
2021/05/31 10:19:54;;;;;;;5.87;3.42;;;;;;;18.48;62.06;100383.27;124761;1105;104229;-78
2021/05/31 10:22:27;;;;;;;4.43;3.30;;;;;;;18.43;62.18;100384.14;124772;1105;104187;-77
2021/05/31 10:25:00;;;;;;;6.57;3.50;;;;;;;18.42;62.12;100379.73;124823;1103;104269;-77
2021/05/31 10:27:36;;;;;;;4.60;3.42;;;;;;;18.45;61.89;100377.95;124741;1106;104038;-77
2021/05/31 10:30:22;;;;;;;7.13;3.60;;;;;;;18.52;62.48;100378.84;124846;1105;104216;-77
2021/05/31 10:32:57;;;;;;;8.40;3.33;;;;;;;18.57;61.58;100363.77;124889;1105;104163;-76
2021/05/31 10:35:30;;;;;;;5.47;3.20;;;;;;;18.64;62.15;100364.69;124989;1106;104159;-76
2021/05/31 10:38:10;;;;;;;8.63;3.87;;;;;;;18.63;61.74;100363.78;124840;1106;104267;-76
2021/05/31 10:40:49;;;;;;;4.97;3.67;;;;;;;18.59;61.95;100363.78;124761;1105;104162;-77
2021/05/31 10:43:23;;;;;;;5.63;3.73;;;;;;;18.52;61.06;100367.33;124827;1105;104188;-79
2021/05/31 10:46:05;;;;;;;6.83;3.63;;;;;;;18.42;61.66;100369.10;124793;1105;104191;-78
2021/05/31 10:48:45;;;;;;;3.30;3.00;;;;;;;18.37;61.56;100368.19;124879;1105;104191;-80
2021/05/31 10:51:26;;;;;;;8.10;3.37;;;;;;;18.37;61.11;100358.47;124884;1105;104255;-80
2021/05/31 10:54:07;;;;;;;6.47;3.60;;;;;;;18.41;61.05;100359.34;124961;1105;104152;-79
2021/05/31 10:56:49;;;;;;;9.33;3.90;;;;;;;18.46;61.15;100365.55;125061;1105;104329;-79
2021/05/31 10:59:24;;;;;;;6.30;3.90;;;;;;;18.57;61.41;100355.80;124831;1106;104188;-79
2021/05/31 11:01:56;;;;;;;6.37;3.60;;;;;;;18.63;60.75;100349.62;124798;1105;105163;-81
2021/05/31 11:04:38;;;;;;;4.57;3.27;;;;;;;18.68;61.26;100347.84;124828;1105;104169;-81
2021/05/31 11:07:11;;;;;;;6.53;3.67;;;;;;;18.77;61.04;100353.16;124750;1106;104211;-78
2021/05/31 11:09:53;;;;;;;6.83;3.47;;;;;;;18.80;60.45;100346.96;124769;1105;104159;-79
2021/05/31 11:12:37;;;;;;;6.17;3.50;;;;;;;18.89;60.10;100346.12;124719;1105;104329;-81
2021/05/31 11:15:10;;;;;;;8.70;4.70;;;;;;;18.98;60.90;100333.69;124921;1105;104191;-81
2021/05/31 11:17:53;;;;;;;5.67;3.87;;;;;;;19.12;60.83;100332.76;124905;1105;104166;-79
2021/05/31 11:20:24;;;;;;;4.47;3.30;;;;;;;19.26;59.69;100333.64;124900;1105;104208;-80
2021/05/31 11:22:59;;;;;;;9.20;3.33;;;;;;;19.35;60.24;100333.61;124716;1105;104266;-79
2021/05/31 11:25:30;;;;;;;9.10;3.60;;;;;;;19.44;59.55;100329.14;125026;1105;104168;-80
2021/05/31 11:28:05;;;;;;;5.60;3.70;;;;;;;19.56;59.45;100331.77;124700;1105;106466;-79
2021/05/31 11:30:37;;;;;;;5.90;3.60;;;;;;;19.64;60.08;100321.09;124860;1106;104168;-80
2021/05/31 11:33:15;;;;;;;6.63;3.50;;;;;;;19.75;59.46;100335.22;124841;1105;104200;-79
2021/05/31 11:35:47;;;;;;;6.07;3.50;;;;;;;19.83;59.15;100329.90;124860;1105;104305;-79
2021/05/31 11:38:19;;;;;;;6.40;3.70;;;;;;;19.98;58.70;100331.61;124625;1105;112256;-78
2021/05/31 11:40:50;;;;;;;6.43;3.60;;;;;;;20.08;59.06;100330.64;124947;1105;105320;-80
2021/05/31 11:43:22;;;;;;;6.90;3.60;;;;;;;20.20;58.44;100324.37;124897;1105;104232;-78
2021/05/31 11:45:55;;;;;;;4.17;3.40;;;;;;;20.32;58.27;100326.95;124792;1106;104191;-79
2021/05/31 11:48:29;;;;;;;6.75;3.83;;;;;;;20.36;58.06;100322.47;124896;1106;104165;-77
2021/05/31 11:51:01;;;;;;;7.00;3.23;;;;;;;20.40;57.81;100313.57;124776;1106;104256;-78
2021/05/31 11:53:33;;;;;;;6.03;3.50;;;;;;;20.50;57.76;100309.91;124890;1105;104158;-79
2021/05/31 11:56:05;;;;;;;8.90;3.70;;;;;;;20.74;57.73;100310.63;124905;1105;104306;-79
2021/05/31 11:58:41;;;;;;;6.23;3.50;;;;;;;20.94;58.35;100310.44;124769;1105;104201;-79
2021/05/31 12:01:15;;;;;;;5.80;3.50;;;;;;;20.93;57.67;100308.70;124950;1105;104162;-79